sensor_id;sensor_type;location;lat;lon;timestamp;pressure;altitude;pressure_sealevel;temperature;humidity
22755;BME280;11544;42.020;23.094;2023-07-29T05:55:58;97033.59;;;26.05;42.55
22755;BME280;11544;42.020;23.094;2023-07-29T05:58:25;97035.22;;;25.62;43.51
22755;BME280;11544;42.020;23.094;2023-07-29T07:25:30;96937.53;;;28.77;35.80
22755;BME280;11544;42.020;23.094;2023-07-29T07:27:57;96941.59;;;29.04;35.15
22755;BME280;11544;42.020;23.094;2023-07-29T07:30:23;96941.19;;;28.36;35.80
22755;BME280;11544;42.020;23.094;2023-07-29T07:32:51;96931.28;;;29.39;35.28
22755;BME280;11544;42.020;23.094;2023-07-29T07:35:18;96927.44;;;29.18;35.47
22755;BME280;11544;42.020;23.094;2023-07-29T07:37:45;96927.78;;;29.61;34.40
22755;BME280;11544;42.020;23.094;2023-07-29T09:36:34;96828.59;;;33.69;27.82
22755;BME280;11544;42.020;23.094;2023-07-29T09:39:03;96824.63;;;33.31;27.40
22755;BME280;11544;42.020;23.094;2023-07-29T09:41:30;96819.84;;;33.20;28.01
22755;BME280;11544;42.020;23.094;2023-07-29T09:44:02;96823.34;;;33.14;27.71
22755;BME280;11544;42.020;23.094;2023-07-29T09:46:35;96817.47;;;32.22;28.08
22755;BME280;11544;42.020;23.094;2023-07-29T09:49:04;96811.25;;;32.83;26.42
22755;BME280;11544;42.020;23.094;2023-07-29T09:51:37;96807.47;;;32.64;27.23
22755;BME280;11544;42.020;23.094;2023-07-29T09:54:26;96795.28;;;32.88;27.17
22755;BME280;11544;42.020;23.094;2023-07-29T10:55:26;96729.00;;;34.31;24.90
22755;BME280;11544;42.020;23.094;2023-07-29T10:58:17;96721.75;;;34.63;23.47
22755;BME280;11544;42.020;23.094;2023-07-29T11:00:47;96720.94;;;34.88;23.77
22755;BME280;11544;42.020;23.094;2023-07-29T11:03:18;96718.56;;;34.73;22.55
22755;BME280;11544;42.020;23.094;2023-07-29T11:08:27;96715.47;;;34.31;23.88
22755;BME280;11544;42.020;23.094;2023-07-29T11:11:12;96710.63;;;33.94;24.52
22755;BME280;11544;42.020;23.094;2023-07-29T11:13:40;96701.06;;;34.37;23.89
22755;BME280;11544;42.020;23.094;2023-07-29T11:16:10;96701.63;;;34.14;24.00
22755;BME280;11544;42.020;23.094;2023-07-29T11:18:57;96699.84;;;34.40;23.57
22755;BME280;11544;42.020;23.094;2023-07-29T11:21:28;96693.19;;;34.67;23.52
22755;BME280;11544;42.020;23.094;2023-07-29T11:24:09;96685.25;;;34.72;22.48
22755;BME280;11544;42.020;23.094;2023-07-29T11:26:37;96678.97;;;34.47;22.91
22755;BME280;11544;42.020;23.094;2023-07-29T18:32:34;96704.56;;;28.97;39.44
22755;BME280;11544;42.020;23.094;2023-07-29T18:35:02;96703.63;;;28.89;39.14
22755;BME280;11544;42.020;23.094;2023-07-29T18:37:30;96711.56;;;28.98;39.08
22755;BME280;11544;42.020;23.094;2023-07-29T18:39:57;96712.78;;;28.95;39.56
22755;BME280;11544;42.020;23.094;2023-07-29T18:42:24;96709.28;;;28.71;39.58
22755;BME280;11544;42.020;23.094;2023-07-29T18:44:51;96716.47;;;28.94;38.93
22755;BME280;11544;42.020;23.094;2023-07-29T18:47:19;96721.00;;;28.93;39.35
22755;BME280;11544;42.020;23.094;2023-07-29T18:49:46;96726.81;;;28.82;39.63
22755;BME280;11544;42.020;23.094;2023-07-29T18:52:13;96717.34;;;28.71;40.02
22755;BME280;11544;42.020;23.094;2023-07-29T18:54:40;96727.59;;;29.06;39.67
22755;BME280;11544;42.020;23.094;2023-07-29T18:57:08;96728.84;;;28.80;39.60
22755;BME280;11544;42.020;23.094;2023-07-29T18:59:35;96737.34;;;28.38;40.55
22755;BME280;11544;42.020;23.094;2023-07-29T19:02:02;96733.31;;;28.65;39.88
22755;BME280;11544;42.020;23.094;2023-07-29T19:04:30;96740.97;;;28.45;40.45
22755;BME280;11544;42.020;23.094;2023-07-29T19:06:57;96751.38;;;28.08;41.46
22755;BME280;11544;42.020;23.094;2023-07-29T19:09:24;96741.63;;;28.16;41.50
22755;BME280;11544;42.020;23.094;2023-07-29T19:11:52;96747.91;;;28.31;41.47
22755;BME280;11544;42.020;23.094;2023-07-29T19:14:20;96756.88;;;27.84;42.16
22755;BME280;11544;42.020;23.094;2023-07-29T19:16:48;96759.84;;;27.89;42.25
22755;BME280;11544;42.020;23.094;2023-07-29T19:19:15;96760.81;;;27.96;42.18
22755;BME280;11544;42.020;23.094;2023-07-29T19:21:42;96754.81;;;27.94;42.31
22755;BME280;11544;42.020;23.094;2023-07-29T19:24:09;96760.00;;;27.32;43.08
22755;BME280;11544;42.020;23.094;2023-07-29T19:26:37;96765.44;;;27.63;42.64
22755;BME280;11544;42.020;23.094;2023-07-29T19:29:08;96769.56;;;27.26;43.64
22755;BME280;11544;42.020;23.094;2023-07-29T19:31:37;96767.84;;;27.41;43.12
22755;BME280;11544;42.020;23.094;2023-07-29T19:34:04;96769.03;;;27.39;43.02
22755;BME280;11544;42.020;23.094;2023-07-29T19:36:31;96779.22;;;27.19;43.61
22755;BME280;11544;42.020;23.094;2023-07-29T19:38:59;96780.06;;;27.36;43.33
22755;BME280;11544;42.020;23.094;2023-07-29T19:41:26;96775.22;;;27.23;43.15
22755;BME280;11544;42.020;23.094;2023-07-29T19:43:55;96784.91;;;27.08;43.31
22755;BME280;11544;42.020;23.094;2023-07-29T19:46:34;96788.41;;;27.33;42.97
22755;BME280;11544;42.020;23.094;2023-07-29T19:49:04;96787.59;;;27.08;43.09
22755;BME280;11544;42.020;23.094;2023-07-29T19:51:32;96792.09;;;27.07;43.40
22755;BME280;11544;42.020;23.094;2023-07-29T19:53:59;96796.63;;;27.31;42.68
22755;BME280;11544;42.020;23.094;2023-07-29T19:56:26;96798.81;;;27.03;43.54
22755;BME280;11544;42.020;23.094;2023-07-29T19:58:53;96796.25;;;26.69;44.17
22755;BME280;11544;42.020;23.094;2023-07-29T20:01:21;96802.31;;;26.79;43.83
22755;BME280;11544;42.020;23.094;2023-07-29T20:03:49;96802.13;;;26.72;44.07
22755;BME280;11544;42.020;23.094;2023-07-29T20:06:19;96799.84;;;26.43;44.64
22755;BME280;11544;42.020;23.094;2023-07-29T20:08:49;96802.38;;;26.45;44.54
22755;BME280;11544;42.020;23.094;2023-07-29T20:11:20;96813.69;;;26.22;45.03
22755;BME280;11544;42.020;23.094;2023-07-29T20:13:48;96815.84;;;26.27;44.86
22755;BME280;11544;42.020;23.094;2023-07-29T20:16:16;96818.06;;;26.48;44.85
22755;BME280;11544;42.020;23.094;2023-07-29T20:18:43;96816.97;;;26.67;44.64
22755;BME280;11544;42.020;23.094;2023-07-29T20:21:10;96811.66;;;26.91;43.27
22755;BME280;11544;42.020;23.094;2023-07-29T20:23:38;96816.50;;;26.88;43.36
22755;BME280;11544;42.020;23.094;2023-07-29T20:26:05;96808.47;;;26.71;43.78
22755;BME280;11544;42.020;23.094;2023-07-29T20:28:32;96814.31;;;26.75;43.48
22755;BME280;11544;42.020;23.094;2023-07-29T20:31:02;96818.69;;;26.25;44.84
22755;BME280;11544;42.020;23.094;2023-07-29T20:33:29;96828.06;;;25.87;46.19
22755;BME280;11544;42.020;23.094;2023-07-29T20:35:58;96831.19;;;25.56;47.33
22755;BME280;11544;42.020;23.094;2023-07-29T20:38:26;96824.41;;;25.70;46.74
22755;BME280;11544;42.020;23.094;2023-07-29T20:40:55;96822.47;;;25.80;46.79
22755;BME280;11544;42.020;23.094;2023-07-29T20:43:23;96835.00;;;25.80;46.63
22755;BME280;11544;42.020;23.094;2023-07-29T20:45:50;96828.97;;;26.12;45.79
22755;BME280;11544;42.020;23.094;2023-07-29T20:48:21;96829.94;;;25.76;46.16
22755;BME280;11544;42.020;23.094;2023-07-29T20:50:49;96837.41;;;25.65;46.83
22755;BME280;11544;42.020;23.094;2023-07-29T20:53:16;96833.66;;;25.49;47.36
22755;BME280;11544;42.020;23.094;2023-07-29T20:55:44;96840.31;;;25.53;47.35
22755;BME280;11544;42.020;23.094;2023-07-29T20:58:16;96841.31;;;25.78;46.56
22755;BME280;11544;42.020;23.094;2023-07-29T21:00:43;96841.91;;;25.90;46.20
22755;BME280;11544;42.020;23.094;2023-07-29T21:03:11;96845.00;;;25.77;46.55
22755;BME280;11544;42.020;23.094;2023-07-29T21:05:38;96851.16;;;25.52;47.12
22755;BME280;11544;42.020;23.094;2023-07-29T21:08:05;96859.69;;;25.55;47.17
22755;BME280;11544;42.020;23.094;2023-07-29T21:10:36;96854.41;;;25.64;47.14
22755;BME280;11544;42.020;23.094;2023-07-29T21:13:14;96861.25;;;25.66;47.27
22755;BME280;11544;42.020;23.094;2023-07-29T21:15:53;96862.31;;;25.29;48.63
22755;BME280;11544;42.020;23.094;2023-07-29T22:48:03;96889.44;;;24.89;49.51
22755;BME280;11544;42.020;23.094;2023-07-29T22:50:30;96900.22;;;24.14;52.43
22755;BME280;11544;42.020;23.094;2023-07-29T22:52:58;96900.19;;;24.24;52.21
22755;BME280;11544;42.020;23.094;2023-07-29T22:55:28;96903.72;;;24.42;51.97
